sensor_id;sensor_type;location;lat;lon;timestamp;P1;durP1;ratioP1;P2;durP2;ratioP2
3733;SDS011;1882;52.256;8.874;2024-02-04T00:02:07;13.53;;;8.90;;
3733;SDS011;1882;52.256;8.874;2024-02-04T00:04:35;11.97;;;8.37;;
3733;SDS011;1882;52.256;8.874;2024-02-04T00:07:03;13.43;;;8.80;;
3733;SDS011;1882;52.256;8.874;2024-02-04T00:09:30;14.10;;;8.93;;
3733;SDS011;1882;52.256;8.874;2024-02-04T00:12:01;14.90;;;8.60;;
3733;SDS011;1882;52.256;8.874;2024-02-04T00:14:30;14.83;;;9.47;;
3733;SDS011;1882;52.256;8.874;2024-02-04T00:16:57;14.00;;;9.33;;
3733;SDS011;1882;52.256;8.874;2024-02-04T00:19:24;15.10;;;9.60;;
3733;SDS011;1882;52.256;8.874;2024-02-04T00:21:51;17.80;;;10.77;;
3733;SDS011;1882;52.256;8.874;2024-02-04T00:24:18;19.13;;;11.67;;
3733;SDS011;1882;52.256;8.874;2024-02-04T00:26:45;18.03;;;11.40;;
3733;SDS011;1882;52.256;8.874;2024-02-04T00:29:12;23.17;;;12.90;;
3733;SDS011;1882;52.256;8.874;2024-02-04T00:31:39;20.43;;;11.80;;
3733;SDS011;1882;52.256;8.874;2024-02-04T00:34:06;20.63;;;12.70;;
3733;SDS011;1882;52.256;8.874;2024-02-04T00:36:34;22.50;;;13.37;;
3733;SDS011;1882;52.256;8.874;2024-02-04T00:39:01;22.10;;;13.43;;
3733;SDS011;1882;52.256;8.874;2024-02-04T00:41:28;22.80;;;14.27;;
3733;SDS011;1882;52.256;8.874;2024-02-04T00:43:55;22.67;;;14.40;;
3733;SDS011;1882;52.256;8.874;2024-02-04T00:46:22;24.77;;;14.50;;
3733;SDS011;1882;52.256;8.874;2024-02-04T00:48:49;25.43;;;15.10;;
3733;SDS011;1882;52.256;8.874;2024-02-04T00:51:16;26.27;;;15.00;;
3733;SDS011;1882;52.256;8.874;2024-02-04T00:53:43;26.13;;;14.20;;
3733;SDS011;1882;52.256;8.874;2024-02-04T00:56:10;25.00;;;15.93;;
3733;SDS011;1882;52.256;8.874;2024-02-04T00:58:38;21.57;;;13.30;;
3733;SDS011;1882;52.256;8.874;2024-02-04T01:01:05;24.80;;;14.40;;
3733;SDS011;1882;52.256;8.874;2024-02-04T01:03:32;27.50;;;13.70;;
3733;SDS011;1882;52.256;8.874;2024-02-04T01:05:59;25.13;;;14.27;;
3733;SDS011;1882;52.256;8.874;2024-02-04T01:08:26;21.30;;;13.07;;
3733;SDS011;1882;52.256;8.874;2024-02-04T01:10:53;24.73;;;14.23;;
3733;SDS011;1882;52.256;8.874;2024-02-04T01:13:20;23.27;;;14.03;;
3733;SDS011;1882;52.256;8.874;2024-02-04T01:15:47;25.07;;;14.93;;
3733;SDS011;1882;52.256;8.874;2024-02-04T01:18:14;27.50;;;14.40;;
3733;SDS011;1882;52.256;8.874;2024-02-04T01:20:41;24.93;;;13.83;;
3733;SDS011;1882;52.256;8.874;2024-02-04T01:23:08;21.33;;;13.00;;
3733;SDS011;1882;52.256;8.874;2024-02-04T01:25:35;22.80;;;13.20;;
3733;SDS011;1882;52.256;8.874;2024-02-04T01:28:05;18.10;;;12.10;;
3733;SDS011;1882;52.256;8.874;2024-02-04T01:30:32;23.47;;;13.07;;
3733;SDS011;1882;52.256;8.874;2024-02-04T01:32:59;27.23;;;12.80;;
3733;SDS011;1882;52.256;8.874;2024-02-04T01:35:26;21.37;;;12.37;;
3733;SDS011;1882;52.256;8.874;2024-02-04T01:37:53;18.60;;;11.87;;
3733;SDS011;1882;52.256;8.874;2024-02-04T01:40:20;22.13;;;12.57;;
3733;SDS011;1882;52.256;8.874;2024-02-04T01:42:47;23.37;;;12.30;;
3733;SDS011;1882;52.256;8.874;2024-02-04T01:45:14;21.20;;;12.73;;
3733;SDS011;1882;52.256;8.874;2024-02-04T01:47:41;19.13;;;11.80;;
3733;SDS011;1882;52.256;8.874;2024-02-04T01:50:09;21.23;;;11.90;;
3733;SDS011;1882;52.256;8.874;2024-02-04T01:52:37;21.07;;;12.20;;
3733;SDS011;1882;52.256;8.874;2024-02-04T01:55:08;19.60;;;12.37;;
3733;SDS011;1882;52.256;8.874;2024-02-04T01:57:35;22.37;;;12.47;;
3733;SDS011;1882;52.256;8.874;2024-02-04T02:00:03;26.10;;;12.00;;
3733;SDS011;1882;52.256;8.874;2024-02-04T02:02:31;19.97;;;12.37;;
3733;SDS011;1882;52.256;8.874;2024-02-04T02:05:00;19.00;;;11.00;;
3733;SDS011;1882;52.256;8.874;2024-02-04T02:07:27;21.77;;;11.63;;
3733;SDS011;1882;52.256;8.874;2024-02-04T02:09:55;23.07;;;11.80;;
3733;SDS011;1882;52.256;8.874;2024-02-04T02:15:10;22.27;;;11.70;;
3733;SDS011;1882;52.256;8.874;2024-02-04T02:17:40;25.57;;;12.60;;
3733;SDS011;1882;52.256;8.874;2024-02-04T02:20:23;24.13;;;11.87;;
3733;SDS011;1882;52.256;8.874;2024-02-04T02:23:10;23.80;;;13.17;;
3733;SDS011;1882;52.256;8.874;2024-02-04T02:25:41;25.67;;;14.17;;
3733;SDS011;1882;52.256;8.874;2024-02-04T02:28:09;24.83;;;12.50;;
3733;SDS011;1882;52.256;8.874;2024-02-04T02:30:37;23.80;;;13.50;;
3733;SDS011;1882;52.256;8.874;2024-02-04T02:33:04;24.63;;;13.50;;
3733;SDS011;1882;52.256;8.874;2024-02-04T02:35:34;22.33;;;13.30;;
3733;SDS011;1882;52.256;8.874;2024-02-04T02:38:05;23.13;;;12.97;;
3733;SDS011;1882;52.256;8.874;2024-02-04T02:40:58;19.90;;;12.43;;
3733;SDS011;1882;52.256;8.874;2024-02-04T02:43:29;22.73;;;13.27;;
3733;SDS011;1882;52.256;8.874;2024-02-04T02:45:58;22.37;;;13.57;;
3733;SDS011;1882;52.256;8.874;2024-02-04T02:48:25;23.50;;;13.20;;
3733;SDS011;1882;52.256;8.874;2024-02-04T02:50:53;24.13;;;13.47;;
3733;SDS011;1882;52.256;8.874;2024-02-04T02:53:20;22.57;;;12.53;;
3733;SDS011;1882;52.256;8.874;2024-02-04T02:55:47;20.87;;;13.10;;
3733;SDS011;1882;52.256;8.874;2024-02-04T02:58:14;21.53;;;13.03;;
3733;SDS011;1882;52.256;8.874;2024-02-04T03:00:41;23.60;;;12.87;;
3733;SDS011;1882;52.256;8.874;2024-02-04T03:03:08;21.53;;;12.97;;
3733;SDS011;1882;52.256;8.874;2024-02-04T03:05:35;24.03;;;13.40;;
3733;SDS011;1882;52.256;8.874;2024-02-04T03:08:02;23.40;;;12.80;;
3733;SDS011;1882;52.256;8.874;2024-02-04T03:10:29;17.50;;;11.70;;
3733;SDS011;1882;52.256;8.874;2024-02-04T03:12:56;22.67;;;12.60;;
3733;SDS011;1882;52.256;8.874;2024-02-04T03:15:23;22.40;;;13.37;;
3733;SDS011;1882;52.256;8.874;2024-02-04T03:17:50;20.40;;;12.47;;
3733;SDS011;1882;52.256;8.874;2024-02-04T03:20:17;22.40;;;12.83;;
3733;SDS011;1882;52.256;8.874;2024-02-04T03:22:45;20.67;;;12.47;;
3733;SDS011;1882;52.256;8.874;2024-02-04T03:25:12;24.13;;;13.53;;
3733;SDS011;1882;52.256;8.874;2024-02-04T03:27:40;17.50;;;11.20;;
3733;SDS011;1882;52.256;8.874;2024-02-04T03:30:07;16.20;;;11.30;;
3733;SDS011;1882;52.256;8.874;2024-02-04T03:32:34;19.67;;;12.40;;
3733;SDS011;1882;52.256;8.874;2024-02-04T03:35:01;18.40;;;11.63;;
3733;SDS011;1882;52.256;8.874;2024-02-04T03:37:30;17.70;;;12.40;;
3733;SDS011;1882;52.256;8.874;2024-02-04T03:39:56;20.40;;;12.40;;
3733;SDS011;1882;52.256;8.874;2024-02-04T03:42:24;21.20;;;11.60;;
3733;SDS011;1882;52.256;8.874;2024-02-04T03:44:51;21.77;;;12.87;;
3733;SDS011;1882;52.256;8.874;2024-02-04T03:47:18;19.70;;;11.03;;
3733;SDS011;1882;52.256;8.874;2024-02-04T03:49:45;20.13;;;11.13;;
3733;SDS011;1882;52.256;8.874;2024-02-04T03:52:12;20.87;;;12.50;;
3733;SDS011;1882;52.256;8.874;2024-02-04T03:54:39;16.03;;;11.53;;
3733;SDS011;1882;52.256;8.874;2024-02-04T03:57:06;15.43;;;10.97;;
3733;SDS011;1882;52.256;8.874;2024-02-04T03:59:34;19.17;;;11.60;;
3733;SDS011;1882;52.256;8.874;2024-02-04T04:02:01;17.50;;;10.80;;
3733;SDS011;1882;52.256;8.874;2024-02-04T04:04:27;14.90;;;9.87;;
3733;SDS011;1882;52.256;8.874;2024-02-04T04:06:55;15.13;;;9.87;;
3733;SDS011;1882;52.256;8.874;2024-02-04T04:09:22;15.67;;;10.27;;
3733;SDS011;1882;52.256;8.874;2024-02-04T04:11:48;13.43;;;9.97;;
3733;SDS011;1882;52.256;8.874;2024-02-04T04:14:15;10.23;;;7.83;;
3733;SDS011;1882;52.256;8.874;2024-02-04T04:16:42;14.70;;;9.27;;
3733;SDS011;1882;52.256;8.874;2024-02-04T04:19:09;10.77;;;7.80;;
3733;SDS011;1882;52.256;8.874;2024-02-04T04:21:37;9.40;;;6.43;;
3733;SDS011;1882;52.256;8.874;2024-02-04T04:24:04;10.67;;;7.47;;
3733;SDS011;1882;52.256;8.874;2024-02-04T04:26:31;11.77;;;7.13;;
3733;SDS011;1882;52.256;8.874;2024-02-04T04:28:59;10.60;;;6.70;;
3733;SDS011;1882;52.256;8.874;2024-02-04T04:31:26;9.73;;;7.30;;
3733;SDS011;1882;52.256;8.874;2024-02-04T04:33:53;10.53;;;7.43;;
3733;SDS011;1882;52.256;8.874;2024-02-04T04:36:20;13.63;;;8.07;;
3733;SDS011;1882;52.256;8.874;2024-02-04T04:38:47;11.40;;;8.00;;
3733;SDS011;1882;52.256;8.874;2024-02-04T04:41:16;10.50;;;7.80;;
3733;SDS011;1882;52.256;8.874;2024-02-04T04:43:43;11.20;;;7.83;;
3733;SDS011;1882;52.256;8.874;2024-02-04T04:46:10;13.40;;;8.50;;
3733;SDS011;1882;52.256;8.874;2024-02-04T04:48:37;13.27;;;9.07;;
3733;SDS011;1882;52.256;8.874;2024-02-04T04:51:07;10.77;;;8.50;;
3733;SDS011;1882;52.256;8.874;2024-02-04T04:53:34;12.33;;;8.13;;
3733;SDS011;1882;52.256;8.874;2024-02-04T04:56:01;13.13;;;8.60;;
3733;SDS011;1882;52.256;8.874;2024-02-04T04:58:28;11.50;;;8.10;;
3733;SDS011;1882;52.256;8.874;2024-02-04T05:00:55;12.10;;;8.67;;
3733;SDS011;1882;52.256;8.874;2024-02-04T05:03:22;15.20;;;9.17;;
3733;SDS011;1882;52.256;8.874;2024-02-04T05:05:49;15.57;;;8.47;;
3733;SDS011;1882;52.256;8.874;2024-02-04T05:08:16;10.90;;;7.90;;
3733;SDS011;1882;52.256;8.874;2024-02-04T05:10:43;12.00;;;8.40;;
3733;SDS011;1882;52.256;8.874;2024-02-04T05:13:10;9.63;;;7.00;;
3733;SDS011;1882;52.256;8.874;2024-02-04T05:15:37;11.63;;;6.90;;
3733;SDS011;1882;52.256;8.874;2024-02-04T05:18:04;9.17;;;7.13;;
3733;SDS011;1882;52.256;8.874;2024-02-04T05:20:31;9.70;;;5.33;;
3733;SDS011;1882;52.256;8.874;2024-02-04T05:22:58;7.70;;;5.27;;
3733;SDS011;1882;52.256;8.874;2024-02-04T05:25:25;6.60;;;4.73;;
3733;SDS011;1882;52.256;8.874;2024-02-04T05:27:52;7.63;;;4.93;;
3733;SDS011;1882;52.256;8.874;2024-02-04T05:30:19;6.63;;;4.60;;
3733;SDS011;1882;52.256;8.874;2024-02-04T05:32:46;5.50;;;4.23;;
3733;SDS011;1882;52.256;8.874;2024-02-04T05:35:13;5.63;;;3.93;;
3733;SDS011;1882;52.256;8.874;2024-02-04T05:37:40;5.33;;;4.57;;
3733;SDS011;1882;52.256;8.874;2024-02-04T05:40:07;6.80;;;4.43;;
3733;SDS011;1882;52.256;8.874;2024-02-04T05:42:34;6.57;;;4.30;;
3733;SDS011;1882;52.256;8.874;2024-02-04T05:45:03;6.77;;;4.27;;
3733;SDS011;1882;52.256;8.874;2024-02-04T05:47:32;9.30;;;4.57;;
3733;SDS011;1882;52.256;8.874;2024-02-04T05:49:59;7.07;;;4.30;;
3733;SDS011;1882;52.256;8.874;2024-02-04T05:52:26;5.90;;;4.30;;
3733;SDS011;1882;52.256;8.874;2024-02-04T05:54:53;5.43;;;3.63;;
3733;SDS011;1882;52.256;8.874;2024-02-04T05:57:20;5.03;;;4.33;;
3733;SDS011;1882;52.256;8.874;2024-02-04T05:59:47;5.83;;;4.63;;
3733;SDS011;1882;52.256;8.874;2024-02-04T06:02:14;9.93;;;4.80;;
3733;SDS011;1882;52.256;8.874;2024-02-04T06:04:41;8.80;;;4.13;;
3733;SDS011;1882;52.256;8.874;2024-02-04T06:07:08;7.77;;;4.23;;
3733;SDS011;1882;52.256;8.874;2024-02-04T06:09:35;5.90;;;4.13;;
3733;SDS011;1882;52.256;8.874;2024-02-04T06:12:02;5.03;;;3.63;;
3733;SDS011;1882;52.256;8.874;2024-02-04T06:14:33;6.67;;;4.33;;
3733;SDS011;1882;52.256;8.874;2024-02-04T06:17:02;4.90;;;3.87;;
3733;SDS011;1882;52.256;8.874;2024-02-04T06:19:29;5.10;;;3.70;;
3733;SDS011;1882;52.256;8.874;2024-02-04T06:21:56;5.17;;;3.40;;
3733;SDS011;1882;52.256;8.874;2024-02-04T06:24:23;9.60;;;4.23;;
3733;SDS011;1882;52.256;8.874;2024-02-04T06:26:50;7.93;;;3.97;;
3733;SDS011;1882;52.256;8.874;2024-02-04T06:29:17;6.17;;;3.50;;
3733;SDS011;1882;52.256;8.874;2024-02-04T06:31:44;5.60;;;3.70;;
3733;SDS011;1882;52.256;8.874;2024-02-04T06:34:12;9.80;;;3.90;;
3733;SDS011;1882;52.256;8.874;2024-02-04T06:36:42;5.97;;;3.70;;
3733;SDS011;1882;52.256;8.874;2024-02-04T06:39:11;7.70;;;4.33;;
3733;SDS011;1882;52.256;8.874;2024-02-04T06:41:37;8.37;;;4.13;;
3733;SDS011;1882;52.256;8.874;2024-02-04T06:44:04;5.37;;;4.20;;
3733;SDS011;1882;52.256;8.874;2024-02-04T06:46:31;4.97;;;4.23;;
3733;SDS011;1882;52.256;8.874;2024-02-04T06:48:58;4.13;;;3.70;;
3733;SDS011;1882;52.256;8.874;2024-02-04T06:51:26;6.97;;;3.90;;
3733;SDS011;1882;52.256;8.874;2024-02-04T06:53:53;4.13;;;3.73;;
3733;SDS011;1882;52.256;8.874;2024-02-04T06:56:20;8.03;;;3.57;;
3733;SDS011;1882;52.256;8.874;2024-02-04T06:58:46;7.57;;;4.30;;
3733;SDS011;1882;52.256;8.874;2024-02-04T07:01:16;8.30;;;3.77;;
3733;SDS011;1882;52.256;8.874;2024-02-04T07:03:44;6.97;;;3.23;;
3733;SDS011;1882;52.256;8.874;2024-02-04T07:06:11;7.23;;;4.00;;
3733;SDS011;1882;52.256;8.874;2024-02-04T07:08:38;5.97;;;3.00;;
3733;SDS011;1882;52.256;8.874;2024-02-04T07:11:04;7.03;;;2.70;;
3733;SDS011;1882;52.256;8.874;2024-02-04T07:13:31;7.60;;;3.67;;
3733;SDS011;1882;52.256;8.874;2024-02-04T07:15:58;4.83;;;2.90;;
3733;SDS011;1882;52.256;8.874;2024-02-04T07:18:26;4.27;;;3.17;;
3733;SDS011;1882;52.256;8.874;2024-02-04T07:20:53;6.13;;;2.70;;
3733;SDS011;1882;52.256;8.874;2024-02-04T07:23:20;6.10;;;2.97;;
3733;SDS011;1882;52.256;8.874;2024-02-04T07:25:47;9.00;;;2.60;;
3733;SDS011;1882;52.256;8.874;2024-02-04T07:28:14;5.50;;;2.60;;
3733;SDS011;1882;52.256;8.874;2024-02-04T07:30:41;6.60;;;2.60;;
3733;SDS011;1882;52.256;8.874;2024-02-04T07:33:08;3.90;;;2.20;;
3733;SDS011;1882;52.256;8.874;2024-02-04T07:35:35;6.47;;;2.30;;
3733;SDS011;1882;52.256;8.874;2024-02-04T07:38:02;6.37;;;2.23;;
3733;SDS011;1882;52.256;8.874;2024-02-04T07:40:29;4.87;;;1.90;;
3733;SDS011;1882;52.256;8.874;2024-02-04T07:42:56;6.07;;;2.17;;
3733;SDS011;1882;52.256;8.874;2024-02-04T07:45:23;7.03;;;1.97;;
3733;SDS011;1882;52.256;8.874;2024-02-04T07:47:50;7.10;;;2.70;;
3733;SDS011;1882;52.256;8.874;2024-02-04T07:50:17;6.33;;;2.00;;
3733;SDS011;1882;52.256;8.874;2024-02-04T07:52:44;4.83;;;2.27;;
3733;SDS011;1882;52.256;8.874;2024-02-04T07:55:11;9.10;;;2.20;;
3733;SDS011;1882;52.256;8.874;2024-02-04T07:57:38;4.70;;;2.40;;
3733;SDS011;1882;52.256;8.874;2024-02-04T08:00:05;5.70;;;2.23;;
3733;SDS011;1882;52.256;8.874;2024-02-04T08:02:39;11.23;;;2.43;;
3733;SDS011;1882;52.256;8.874;2024-02-04T08:05:06;8.07;;;1.80;;
3733;SDS011;1882;52.256;8.874;2024-02-04T08:07:33;6.10;;;2.30;;
3733;SDS011;1882;52.256;8.874;2024-02-04T08:10:00;7.83;;;2.23;;
3733;SDS011;1882;52.256;8.874;2024-02-04T08:12:28;4.77;;;2.40;;
3733;SDS011;1882;52.256;8.874;2024-02-04T08:14:54;5.30;;;2.20;;
3733;SDS011;1882;52.256;8.874;2024-02-04T08:17:21;6.97;;;2.40;;
3733;SDS011;1882;52.256;8.874;2024-02-04T08:19:49;5.77;;;2.37;;
3733;SDS011;1882;52.256;8.874;2024-02-04T08:22:17;7.13;;;2.43;;
3733;SDS011;1882;52.256;8.874;2024-02-04T08:24:45;3.93;;;2.10;;
3733;SDS011;1882;52.256;8.874;2024-02-04T08:27:13;6.27;;;2.10;;
3733;SDS011;1882;52.256;8.874;2024-02-04T08:29:42;6.93;;;2.63;;
3733;SDS011;1882;52.256;8.874;2024-02-04T08:32:09;8.50;;;2.13;;
3733;SDS011;1882;52.256;8.874;2024-02-04T08:34:36;12.30;;;3.00;;
3733;SDS011;1882;52.256;8.874;2024-02-04T08:37:03;6.60;;;2.83;;
3733;SDS011;1882;52.256;8.874;2024-02-04T08:39:30;11.57;;;2.73;;
3733;SDS011;1882;52.256;8.874;2024-02-04T08:41:57;5.57;;;2.20;;
3733;SDS011;1882;52.256;8.874;2024-02-04T08:44:24;9.30;;;2.90;;
3733;SDS011;1882;52.256;8.874;2024-02-04T08:47:04;3.90;;;2.50;;
3733;SDS011;1882;52.256;8.874;2024-02-04T08:49:31;9.50;;;3.50;;
3733;SDS011;1882;52.256;8.874;2024-02-04T08:51:58;5.00;;;2.70;;
3733;SDS011;1882;52.256;8.874;2024-02-04T08:54:25;8.60;;;3.10;;
3733;SDS011;1882;52.256;8.874;2024-02-04T08:56:52;7.93;;;2.70;;
3733;SDS011;1882;52.256;8.874;2024-02-04T08:59:19;9.30;;;2.70;;
3733;SDS011;1882;52.256;8.874;2024-02-04T09:01:46;8.30;;;2.97;;
3733;SDS011;1882;52.256;8.874;2024-02-04T09:04:13;8.00;;;2.90;;
3733;SDS011;1882;52.256;8.874;2024-02-04T09:06:40;5.80;;;2.90;;
3733;SDS011;1882;52.256;8.874;2024-02-04T09:09:07;12.27;;;3.27;;
3733;SDS011;1882;52.256;8.874;2024-02-04T09:11:35;6.00;;;2.70;;
3733;SDS011;1882;52.256;8.874;2024-02-04T09:14:02;4.87;;;2.90;;
3733;SDS011;1882;52.256;8.874;2024-02-04T09:16:30;11.90;;;5.27;;
3733;SDS011;1882;52.256;8.874;2024-02-04T09:18:57;11.87;;;3.37;;
3733;SDS011;1882;52.256;8.874;2024-02-04T09:21:24;7.13;;;3.63;;
3733;SDS011;1882;52.256;8.874;2024-02-04T09:23:52;9.70;;;3.03;;
3733;SDS011;1882;52.256;8.874;2024-02-04T09:26:19;5.80;;;2.60;;
3733;SDS011;1882;52.256;8.874;2024-02-04T09:28:46;8.73;;;2.67;;
3733;SDS011;1882;52.256;8.874;2024-02-04T09:31:14;9.20;;;2.97;;
3733;SDS011;1882;52.256;8.874;2024-02-04T09:33:41;12.50;;;5.07;;
3733;SDS011;1882;52.256;8.874;2024-02-04T09:36:08;11.13;;;3.67;;
3733;SDS011;1882;52.256;8.874;2024-02-04T09:38:36;9.83;;;3.90;;
3733;SDS011;1882;52.256;8.874;2024-02-04T09:41:03;11.13;;;2.80;;
3733;SDS011;1882;52.256;8.874;2024-02-04T09:43:31;7.17;;;3.03;;
3733;SDS011;1882;52.256;8.874;2024-02-04T09:46:00;6.70;;;3.40;;
3733;SDS011;1882;52.256;8.874;2024-02-04T09:48:31;7.37;;;3.37;;
3733;SDS011;1882;52.256;8.874;2024-02-04T09:50:59;11.07;;;3.13;;
3733;SDS011;1882;52.256;8.874;2024-02-04T09:53:31;13.13;;;3.50;;
3733;SDS011;1882;52.256;8.874;2024-02-04T09:56:03;10.03;;;5.30;;
3733;SDS011;1882;52.256;8.874;2024-02-04T09:58:32;6.27;;;3.00;;
3733;SDS011;1882;52.256;8.874;2024-02-04T10:01:00;9.07;;;3.70;;
3733;SDS011;1882;52.256;8.874;2024-02-04T10:03:27;7.93;;;4.13;;
3733;SDS011;1882;52.256;8.874;2024-02-04T10:05:55;7.10;;;2.80;;
3733;SDS011;1882;52.256;8.874;2024-02-04T10:08:22;6.67;;;2.73;;
3733;SDS011;1882;52.256;8.874;2024-02-04T10:10:50;8.13;;;2.70;;
3733;SDS011;1882;52.256;8.874;2024-02-04T10:13:17;5.53;;;2.20;;
3733;SDS011;1882;52.256;8.874;2024-02-04T10:15:44;8.00;;;2.37;;
3733;SDS011;1882;52.256;8.874;2024-02-04T10:18:11;8.10;;;2.80;;
3733;SDS011;1882;52.256;8.874;2024-02-04T10:20:38;3.37;;;2.37;;
3733;SDS011;1882;52.256;8.874;2024-02-04T10:23:05;7.30;;;2.70;;
3733;SDS011;1882;52.256;8.874;2024-02-04T10:25:32;3.73;;;2.17;;
3733;SDS011;1882;52.256;8.874;2024-02-04T10:27:59;8.30;;;2.50;;
3733;SDS011;1882;52.256;8.874;2024-02-04T10:30:26;7.47;;;2.60;;
3733;SDS011;1882;52.256;8.874;2024-02-04T10:32:53;9.80;;;2.70;;
3733;SDS011;1882;52.256;8.874;2024-02-04T10:35:21;6.93;;;2.77;;
3733;SDS011;1882;52.256;8.874;2024-02-04T10:37:49;9.63;;;5.23;;
3733;SDS011;1882;52.256;8.874;2024-02-04T10:40:17;4.50;;;2.60;;
3733;SDS011;1882;52.256;8.874;2024-02-04T10:42:45;5.93;;;3.07;;
3733;SDS011;1882;52.256;8.874;2024-02-04T10:45:12;5.93;;;2.20;;
3733;SDS011;1882;52.256;8.874;2024-02-04T10:47:44;6.27;;;2.57;;
3733;SDS011;1882;52.256;8.874;2024-02-04T10:50:21;4.40;;;1.90;;
3733;SDS011;1882;52.256;8.874;2024-02-04T10:52:52;9.97;;;2.17;;
3733;SDS011;1882;52.256;8.874;2024-02-04T10:55:21;5.07;;;2.20;;
3733;SDS011;1882;52.256;8.874;2024-02-04T10:57:54;5.43;;;2.60;;
3733;SDS011;1882;52.256;8.874;2024-02-04T11:00:21;7.50;;;2.50;;
3733;SDS011;1882;52.256;8.874;2024-02-04T11:02:49;6.40;;;3.27;;
3733;SDS011;1882;52.256;8.874;2024-02-04T11:05:17;4.70;;;2.00;;
3733;SDS011;1882;52.256;8.874;2024-02-04T11:07:45;6.20;;;1.80;;
3733;SDS011;1882;52.256;8.874;2024-02-04T11:10:12;3.50;;;2.00;;
3733;SDS011;1882;52.256;8.874;2024-02-04T11:12:41;3.90;;;2.00;;
3733;SDS011;1882;52.256;8.874;2024-02-04T11:15:09;3.77;;;1.83;;
3733;SDS011;1882;52.256;8.874;2024-02-04T11:17:55;3.93;;;1.90;;
3733;SDS011;1882;52.256;8.874;2024-02-04T11:20:57;3.60;;;1.97;;
3733;SDS011;1882;52.256;8.874;2024-02-04T11:26:42;4.63;;;2.00;;
3733;SDS011;1882;52.256;8.874;2024-02-04T11:29:09;3.83;;;1.93;;
3733;SDS011;1882;52.256;8.874;2024-02-04T11:31:38;1.93;;;1.77;;
3733;SDS011;1882;52.256;8.874;2024-02-04T11:34:08;2.93;;;1.60;;
3733;SDS011;1882;52.256;8.874;2024-02-04T11:36:37;2.87;;;2.10;;
3733;SDS011;1882;52.256;8.874;2024-02-04T11:39:12;3.83;;;2.17;;
3733;SDS011;1882;52.256;8.874;2024-02-04T11:41:50;5.63;;;2.87;;
3733;SDS011;1882;52.256;8.874;2024-02-04T11:44:24;6.03;;;3.63;;
3733;SDS011;1882;52.256;8.874;2024-02-04T11:46:54;3.83;;;2.77;;
3733;SDS011;1882;52.256;8.874;2024-02-04T11:49:24;2.80;;;1.67;;
3733;SDS011;1882;52.256;8.874;2024-02-04T11:51:53;5.10;;;2.77;;
3733;SDS011;1882;52.256;8.874;2024-02-04T11:54:21;3.47;;;1.87;;
3733;SDS011;1882;52.256;8.874;2024-02-04T11:56:49;2.17;;;1.80;;
3733;SDS011;1882;52.256;8.874;2024-02-04T11:59:20;3.40;;;2.30;;
3733;SDS011;1882;52.256;8.874;2024-02-04T12:01:49;5.57;;;2.27;;
3733;SDS011;1882;52.256;8.874;2024-02-04T12:04:24;2.87;;;2.07;;
3733;SDS011;1882;52.256;8.874;2024-02-04T12:06:55;4.50;;;2.27;;
3733;SDS011;1882;52.256;8.874;2024-02-04T12:09:23;11.50;;;5.60;;
3733;SDS011;1882;52.256;8.874;2024-02-04T12:11:53;14.43;;;7.73;;
3733;SDS011;1882;52.256;8.874;2024-02-04T12:14:20;8.03;;;4.83;;
3733;SDS011;1882;52.256;8.874;2024-02-04T12:16:48;7.70;;;3.87;;
3733;SDS011;1882;52.256;8.874;2024-02-04T12:19:15;5.43;;;3.97;;
3733;SDS011;1882;52.256;8.874;2024-02-04T12:21:42;10.87;;;5.10;;
3733;SDS011;1882;52.256;8.874;2024-02-04T12:24:09;7.87;;;3.70;;
3733;SDS011;1882;52.256;8.874;2024-02-04T12:26:36;14.53;;;7.40;;
3733;SDS011;1882;52.256;8.874;2024-02-04T12:29:03;8.87;;;4.10;;
3733;SDS011;1882;52.256;8.874;2024-02-04T12:31:30;14.13;;;6.73;;
3733;SDS011;1882;52.256;8.874;2024-02-04T12:33:59;5.70;;;3.77;;
3733;SDS011;1882;52.256;8.874;2024-02-04T12:36:28;9.17;;;5.33;;
3733;SDS011;1882;52.256;8.874;2024-02-04T12:38:57;7.60;;;3.80;;
3733;SDS011;1882;52.256;8.874;2024-02-04T12:41:27;10.03;;;6.33;;
3733;SDS011;1882;52.256;8.874;2024-02-04T12:43:59;10.13;;;5.80;;
3733;SDS011;1882;52.256;8.874;2024-02-04T12:46:31;5.47;;;3.07;;
3733;SDS011;1882;52.256;8.874;2024-02-04T12:48:58;14.87;;;7.77;;
3733;SDS011;1882;52.256;8.874;2024-02-04T12:51:31;5.87;;;4.00;;
3733;SDS011;1882;52.256;8.874;2024-02-04T12:56:48;14.47;;;7.80;;
3733;SDS011;1882;52.256;8.874;2024-02-04T12:59:23;5.43;;;3.90;;
3733;SDS011;1882;52.256;8.874;2024-02-04T13:04:33;6.43;;;4.53;;
3733;SDS011;1882;52.256;8.874;2024-02-04T13:07:00;6.50;;;4.50;;
3733;SDS011;1882;52.256;8.874;2024-02-04T13:09:28;7.10;;;4.27;;
3733;SDS011;1882;52.256;8.874;2024-02-04T13:12:02;7.80;;;5.77;;
3733;SDS011;1882;52.256;8.874;2024-02-04T13:14:34;15.50;;;7.90;;
3733;SDS011;1882;52.256;8.874;2024-02-04T13:17:07;8.10;;;3.90;;
3733;SDS011;1882;52.256;8.874;2024-02-04T13:19:37;16.63;;;10.70;;
3733;SDS011;1882;52.256;8.874;2024-02-04T13:22:05;5.57;;;4.23;;
3733;SDS011;1882;52.256;8.874;2024-02-04T13:24:33;8.00;;;6.90;;
3733;SDS011;1882;52.256;8.874;2024-02-04T13:27:00;6.13;;;3.80;;
3733;SDS011;1882;52.256;8.874;2024-02-04T13:29:29;5.93;;;3.60;;
3733;SDS011;1882;52.256;8.874;2024-02-04T13:31:56;6.53;;;4.37;;
3733;SDS011;1882;52.256;8.874;2024-02-04T13:34:23;5.83;;;4.27;;
3733;SDS011;1882;52.256;8.874;2024-02-04T13:36:50;4.40;;;3.80;;
3733;SDS011;1882;52.256;8.874;2024-02-04T13:39:18;8.27;;;4.40;;
3733;SDS011;1882;52.256;8.874;2024-02-04T13:41:45;8.53;;;5.27;;
3733;SDS011;1882;52.256;8.874;2024-02-04T13:44:12;10.07;;;6.77;;
3733;SDS011;1882;52.256;8.874;2024-02-04T13:46:39;7.03;;;5.23;;
3733;SDS011;1882;52.256;8.874;2024-02-04T13:49:09;7.97;;;5.70;;
3733;SDS011;1882;52.256;8.874;2024-02-04T13:51:39;12.90;;;7.23;;
3733;SDS011;1882;52.256;8.874;2024-02-04T13:54:11;59.03;;;22.53;;
3733;SDS011;1882;52.256;8.874;2024-02-04T13:56:43;52.80;;;19.27;;
3733;SDS011;1882;52.256;8.874;2024-02-04T13:59:11;14.20;;;7.10;;
3733;SDS011;1882;52.256;8.874;2024-02-04T14:01:38;8.60;;;5.40;;
3733;SDS011;1882;52.256;8.874;2024-02-04T14:04:05;7.67;;;6.10;;
3733;SDS011;1882;52.256;8.874;2024-02-04T14:06:32;5.50;;;4.50;;
3733;SDS011;1882;52.256;8.874;2024-02-04T14:08:59;4.80;;;3.47;;
3733;SDS011;1882;52.256;8.874;2024-02-04T14:11:26;8.40;;;4.10;;
3733;SDS011;1882;52.256;8.874;2024-02-04T14:13:54;3.87;;;3.37;;
3733;SDS011;1882;52.256;8.874;2024-02-04T14:16:21;4.33;;;3.00;;
3733;SDS011;1882;52.256;8.874;2024-02-04T14:18:48;8.93;;;2.50;;
3733;SDS011;1882;52.256;8.874;2024-02-04T14:21:15;3.40;;;1.80;;
3733;SDS011;1882;52.256;8.874;2024-02-04T14:23:41;2.97;;;1.90;;
3733;SDS011;1882;52.256;8.874;2024-02-04T14:26:16;2.03;;;1.83;;
3733;SDS011;1882;52.256;8.874;2024-02-04T14:28:44;3.53;;;1.90;;
3733;SDS011;1882;52.256;8.874;2024-02-04T14:31:11;4.27;;;1.87;;
3733;SDS011;1882;52.256;8.874;2024-02-04T14:33:38;2.53;;;1.80;;
3733;SDS011;1882;52.256;8.874;2024-02-04T14:36:06;2.77;;;1.40;;
3733;SDS011;1882;52.256;8.874;2024-02-04T14:38:34;1.73;;;1.40;;
3733;SDS011;1882;52.256;8.874;2024-02-04T14:41:03;3.07;;;1.20;;
3733;SDS011;1882;52.256;8.874;2024-02-04T14:43:31;3.17;;;1.30;;
3733;SDS011;1882;52.256;8.874;2024-02-04T14:45:58;2.57;;;1.10;;
3733;SDS011;1882;52.256;8.874;2024-02-04T14:48:25;2.20;;;1.43;;
3733;SDS011;1882;52.256;8.874;2024-02-04T14:50:52;1.73;;;1.63;;
3733;SDS011;1882;52.256;8.874;2024-02-04T14:53:20;2.70;;;1.43;;
3733;SDS011;1882;52.256;8.874;2024-02-04T14:55:47;5.07;;;1.30;;
3733;SDS011;1882;52.256;8.874;2024-02-04T14:58:14;4.63;;;1.90;;
3733;SDS011;1882;52.256;8.874;2024-02-04T15:00:41;3.10;;;2.00;;
3733;SDS011;1882;52.256;8.874;2024-02-04T15:03:09;2.30;;;1.50;;
3733;SDS011;1882;52.256;8.874;2024-02-04T15:05:36;2.83;;;1.80;;
3733;SDS011;1882;52.256;8.874;2024-02-04T15:08:03;2.00;;;1.80;;
3733;SDS011;1882;52.256;8.874;2024-02-04T15:10:30;2.20;;;2.00;;
3733;SDS011;1882;52.256;8.874;2024-02-04T15:12:57;3.73;;;2.07;;
3733;SDS011;1882;52.256;8.874;2024-02-04T15:15:25;3.43;;;1.77;;
3733;SDS011;1882;52.256;8.874;2024-02-04T15:17:53;3.47;;;1.57;;
3733;SDS011;1882;52.256;8.874;2024-02-04T15:20:20;1.80;;;1.70;;
3733;SDS011;1882;52.256;8.874;2024-02-04T15:22:49;4.63;;;1.50;;